createdAt,value
2022-10-16T00:02:16.438Z,99.90
2022-10-16T00:07:19.274Z,99.90
2022-10-16T00:12:22.228Z,99.90
2022-10-16T00:17:25.070Z,99.90
2022-10-16T00:22:28.139Z,99.90
2022-10-16T00:27:31.227Z,99.90
2022-10-16T00:32:34.200Z,99.90
2022-10-16T00:37:37.027Z,99.90
2022-10-16T00:42:40.115Z,99.90
2022-10-16T00:47:50.130Z,99.90
2022-10-16T00:52:53.343Z,99.90
2022-10-16T00:57:56.982Z,99.90
2022-10-16T01:03:01.365Z,99.90
2022-10-16T01:08:15.239Z,99.90
2022-10-16T01:13:26.007Z,99.90
2022-10-16T01:18:35.029Z,99.90
2022-10-16T01:24:02.690Z,99.90
2022-10-16T01:29:20.167Z,99.90
2022-10-16T01:34:34.640Z,99.90
2022-10-16T01:39:40.877Z,99.90
2022-10-16T01:44:44.736Z,99.90
2022-10-16T01:49:47.781Z,99.90
2022-10-16T01:54:51.975Z,99.90
2022-10-16T01:59:57.644Z,99.90
2022-10-16T02:05:12.219Z,99.90
2022-10-16T02:10:15.147Z,99.90
2022-10-16T02:15:17.871Z,99.90
2022-10-16T02:20:26.231Z,99.90
2022-10-16T02:25:33.389Z,99.90
2022-10-16T02:30:53.874Z,99.90
2022-10-16T02:35:58.180Z,99.90
2022-10-16T02:41:01.402Z,99.90
2022-10-16T02:46:04.325Z,99.90
2022-10-16T02:51:07.429Z,99.90
2022-10-16T02:56:10.326Z,99.90
2022-10-16T03:01:13.829Z,99.90
2022-10-16T03:06:16.497Z,99.90
2022-10-16T03:11:19.302Z,99.90
2022-10-16T03:16:22.141Z,99.90
2022-10-16T03:21:25.871Z,99.90
2022-10-16T03:26:28.698Z,99.90
2022-10-16T03:31:31.791Z,99.90
2022-10-16T03:36:34.783Z,99.90
2022-10-16T03:41:38.134Z,99.90
2022-10-16T03:46:40.973Z,99.90
2022-10-16T03:51:43.821Z,99.90
2022-10-16T03:56:46.686Z,99.90
2022-10-16T04:01:49.473Z,99.90
2022-10-16T04:06:52.523Z,99.90
2022-10-16T04:11:55.354Z,99.90
2022-10-16T04:16:58.067Z,99.90
2022-10-16T04:22:00.833Z,99.90
2022-10-16T04:27:03.917Z,99.90
2022-10-16T04:32:06.770Z,99.90
2022-10-16T04:37:09.341Z,99.90
2022-10-16T04:42:12.479Z,99.90
2022-10-16T04:47:15.314Z,99.90
2022-10-16T04:52:19.869Z,99.90
2022-10-16T04:57:22.556Z,99.90
2022-10-16T05:02:25.783Z,99.90
2022-10-16T05:07:28.945Z,99.90
2022-10-16T05:12:32.049Z,99.90
2022-10-16T05:17:34.923Z,99.90
2022-10-16T05:22:37.757Z,99.90
2022-10-16T05:27:40.337Z,99.90
2022-10-16T05:32:43.221Z,99.90
2022-10-16T05:37:47.795Z,99.90
2022-10-16T05:42:55.330Z,99.90
2022-10-16T05:47:58.098Z,99.90
2022-10-16T05:53:01.000Z,99.90
2022-10-16T05:58:03.856Z,99.90
2022-10-16T06:03:07.932Z,99.90
2022-10-16T06:08:10.789Z,99.90
2022-10-16T06:13:14.649Z,99.90
2022-10-16T06:18:17.495Z,99.90
2022-10-16T06:23:20.380Z,99.90
2022-10-16T06:28:23.355Z,99.90
2022-10-16T06:33:26.359Z,99.90
2022-10-16T06:38:29.253Z,99.90
2022-10-16T06:43:33.201Z,99.90
2022-10-16T06:48:36.095Z,99.90
2022-10-16T06:53:54.867Z,99.90
2022-10-16T06:59:04.387Z,99.90
2022-10-16T07:04:07.167Z,99.90
2022-10-16T07:09:11.585Z,99.90
2022-10-16T07:14:19.134Z,99.90
2022-10-16T07:19:22.307Z,99.90
2022-10-16T07:24:25.895Z,99.90
2022-10-16T07:29:28.746Z,99.90
2022-10-16T07:34:31.500Z,99.90
2022-10-16T07:39:34.815Z,99.90
2022-10-16T07:44:38.220Z,99.90
2022-10-16T07:49:41.029Z,99.90
2022-10-16T07:54:43.879Z,99.90
2022-10-16T07:59:47.415Z,99.90
2022-10-16T08:04:51.310Z,99.90
2022-10-16T08:09:54.130Z,99.90
2022-10-16T08:14:56.842Z,99.50
2022-10-16T08:19:59.682Z,98.90
2022-10-16T08:25:02.634Z,98.40
2022-10-16T08:30:05.810Z,98.10
2022-10-16T08:35:10.793Z,97.30
2022-10-16T08:40:28.964Z,97.10
2022-10-16T08:45:50.206Z,96.80
2022-10-16T08:50:53.934Z,96.00
2022-10-16T08:55:57.060Z,95.90
2022-10-16T09:01:21.564Z,95.30
2022-10-16T09:06:30.385Z,95.00
2022-10-16T09:11:54.910Z,94.50
2022-10-16T09:17:04.681Z,94.50
2022-10-16T09:22:18.038Z,94.10
2022-10-16T09:27:21.001Z,94.00
2022-10-16T09:32:24.215Z,93.60
2022-10-16T09:37:27.798Z,93.10
2022-10-16T09:42:37.803Z,92.60
2022-10-16T09:47:43.580Z,92.60
2022-10-16T09:52:46.330Z,92.50
2022-10-16T09:57:53.139Z,91.20
2022-10-16T10:02:56.355Z,91.40
2022-10-16T10:08:01.402Z,91.10
2022-10-16T10:13:04.379Z,90.30
2022-10-16T10:18:18.746Z,88.80
2022-10-16T10:23:23.837Z,87.60
2022-10-16T10:28:54.957Z,86.30
2022-10-16T10:34:19.478Z,84.00
2022-10-16T10:39:29.022Z,84.20
2022-10-16T10:44:43.804Z,85.20
2022-10-16T10:50:07.433Z,80.70
2022-10-16T10:55:21.459Z,78.30
2022-10-16T11:00:45.478Z,78.60
2022-10-16T11:05:57.666Z,76.80
2022-10-16T11:11:32.349Z,73.80
2022-10-16T11:16:47.943Z,63.80
2022-10-16T11:22:07.580Z,66.50
2022-10-16T11:27:16.340Z,62.40
2022-10-16T11:32:26.319Z,61.90
2022-10-16T11:37:33.425Z,60.70
2022-10-16T11:42:45.559Z,56.20
2022-10-16T11:48:10.121Z,56.70
2022-10-16T11:53:24.622Z,58.70
2022-10-16T11:58:53.229Z,56.80
2022-10-16T12:04:14.730Z,58.60
2022-10-16T12:09:31.818Z,60.20
2022-10-16T12:14:42.980Z,61.80
2022-10-16T12:20:00.939Z,62.50
2022-10-16T12:25:04.126Z,63.00
2022-10-16T12:30:07.542Z,63.70
2022-10-16T12:35:25.059Z,64.60
2022-10-16T12:40:27.666Z,65.10
2022-10-16T12:45:34.957Z,66.60
2022-10-16T12:50:40.350Z,65.90
2022-10-16T12:55:51.231Z,66.70
2022-10-16T13:01:19.367Z,66.50
2022-10-16T13:06:48.639Z,66.30
2022-10-16T13:12:06.658Z,66.80
2022-10-16T13:17:28.101Z,67.00
2022-10-16T13:22:42.663Z,66.90
2022-10-16T13:28:07.674Z,67.10
2022-10-16T13:33:22.157Z,66.70
2022-10-16T13:38:33.092Z,66.80
2022-10-16T13:43:57.609Z,67.00
2022-10-16T13:49:04.125Z,67.20
2022-10-16T13:54:12.566Z,67.30
2022-10-16T13:59:27.886Z,67.30
2022-10-16T14:04:33.345Z,67.60
2022-10-16T14:09:37.584Z,67.10
2022-10-16T14:14:43.642Z,67.00
2022-10-16T14:19:54.751Z,67.60
2022-10-16T14:25:02.194Z,67.60
2022-10-16T14:30:25.353Z,67.70
2022-10-16T14:35:28.049Z,67.70
2022-10-16T14:40:33.564Z,68.10
2022-10-16T14:45:36.875Z,68.40
2022-10-16T14:50:40.000Z,68.20
2022-10-16T14:55:43.408Z,68.30
2022-10-16T15:00:46.854Z,68.50
2022-10-16T15:05:49.598Z,68.90
2022-10-16T15:10:52.620Z,69.70
2022-10-16T15:15:55.591Z,71.20
2022-10-16T15:20:58.269Z,72.70
2022-10-16T15:26:01.271Z,73.60
2022-10-16T15:31:05.465Z,75.00
2022-10-16T15:36:08.903Z,75.50
2022-10-16T15:41:12.769Z,76.20
2022-10-16T15:46:16.329Z,76.30
2022-10-16T15:51:20.095Z,76.90
2022-10-16T15:56:23.420Z,78.20
2022-10-16T16:01:27.118Z,78.40
2022-10-16T16:06:30.566Z,80.00
2022-10-16T16:11:38.601Z,80.20
2022-10-16T16:16:42.435Z,81.40
2022-10-16T16:21:45.496Z,83.30
2022-10-16T16:26:48.361Z,83.50
2022-10-16T16:31:51.226Z,84.30
2022-10-16T16:36:54.990Z,84.80
2022-10-16T16:41:59.566Z,86.60
2022-10-16T16:47:03.093Z,86.50
2022-10-16T16:52:05.718Z,86.00
2022-10-16T16:57:08.653Z,88.00
2022-10-16T17:02:11.402Z,89.40
2022-10-16T17:07:14.389Z,89.80
2022-10-16T17:12:17.504Z,90.30
2022-10-16T17:17:20.345Z,90.40
2022-10-16T17:22:23.010Z,90.70
2022-10-16T17:27:25.965Z,91.20
2022-10-16T17:32:28.939Z,91.10
2022-10-16T17:37:33.531Z,92.20
2022-10-16T17:42:36.933Z,92.60
2022-10-16T17:47:41.877Z,92.30
2022-10-16T17:52:45.181Z,92.60
2022-10-16T17:57:48.147Z,92.40
2022-10-16T18:02:51.078Z,92.80
2022-10-16T18:07:58.379Z,93.30
2022-10-16T18:13:01.875Z,93.80
2022-10-16T18:18:04.938Z,93.90
2022-10-16T18:23:07.567Z,94.70
2022-10-16T18:28:10.421Z,94.20
2022-10-16T18:33:15.604Z,94.90
2022-10-16T18:38:18.640Z,95.10
2022-10-16T18:43:21.530Z,96.10
2022-10-16T18:48:25.245Z,95.60
2022-10-16T18:58:31.977Z,96.40
2022-10-16T19:03:35.344Z,96.50
2022-10-16T19:08:39.021Z,96.50
2022-10-16T19:13:43.042Z,97.90
2022-10-16T19:18:46.429Z,96.70
2022-10-16T19:23:53.496Z,97.50
2022-10-16T19:28:58.878Z,97.70
2022-10-16T19:34:03.479Z,99.00
2022-10-16T19:39:17.640Z,98.40
2022-10-16T19:44:20.467Z,98.50
2022-10-16T19:49:23.179Z,99.00
2022-10-16T19:54:27.384Z,99.50
2022-10-16T19:59:30.441Z,99.50
2022-10-16T20:04:33.240Z,99.90
2022-10-16T20:09:36.255Z,99.90
2022-10-16T20:14:39.050Z,99.90
2022-10-16T20:19:41.871Z,99.90
2022-10-16T20:24:44.734Z,99.90
2022-10-16T20:29:47.339Z,99.90
2022-10-16T20:34:50.426Z,99.90
2022-10-16T20:39:53.226Z,99.90
2022-10-16T20:44:55.969Z,99.90
2022-10-16T20:49:58.553Z,99.90
2022-10-16T20:55:01.440Z,99.90
2022-10-16T21:00:08.236Z,99.90
2022-10-16T21:05:11.100Z,99.90
2022-10-16T21:10:14.114Z,99.90
2022-10-16T21:15:16.917Z,99.90
2022-10-16T21:20:19.700Z,99.90
2022-10-16T21:25:22.488Z,99.90
2022-10-16T21:30:25.683Z,99.90
2022-10-16T21:35:30.612Z,99.90
2022-10-16T21:40:34.045Z,99.90
2022-10-16T21:45:36.706Z,99.90
2022-10-16T21:50:39.311Z,99.90
2022-10-16T21:55:42.660Z,99.90
2022-10-16T22:00:45.422Z,99.90
2022-10-16T22:05:48.455Z,99.90
2022-10-16T22:10:51.225Z,99.90
2022-10-16T22:15:56.060Z,99.90
2022-10-16T22:20:59.172Z,99.90
2022-10-16T22:26:04.604Z,99.90
2022-10-16T22:31:14.875Z,99.90
2022-10-16T22:36:17.747Z,99.90
2022-10-16T22:41:21.373Z,99.90
2022-10-16T22:46:26.660Z,99.90
2022-10-16T22:51:29.564Z,99.90
2022-10-16T22:56:32.370Z,99.90
2022-10-16T23:01:40.905Z,99.90
2022-10-16T23:06:43.724Z,99.90
2022-10-16T23:11:46.575Z,99.90
2022-10-16T23:16:49.965Z,99.90
2022-10-16T23:21:52.788Z,99.90
2022-10-16T23:26:55.526Z,99.90
2022-10-16T23:31:58.519Z,99.90
2022-10-16T23:37:03.801Z,99.90
2022-10-16T23:42:06.617Z,99.90
2022-10-16T23:47:09.256Z,99.90
2022-10-16T23:52:11.974Z,99.90
2022-10-16T23:57:15.387Z,99.90
